Terminal Aerodrome Forecast
Issued by NWS Bismarck, ND

Home | Current Version | Previous Version | Text Only | Print | Product List | Glossary Off
Versions: 1 2 3 4 5 6 7 8 9 10 11 12 13 14 15 16 17 18

000
FTUS43 KBIS 161000 AAA
TAFBIS
TAF AMD
KBIS 161006Z 1610/1706 07020G26KT P6SM SCT035 BKN070
     FM161200 07020G26KT 4SM BR VCSH SCT015 OVC025
     FM161400 06018G23KT 4SM BR VCSH SCT008 OVC015
     FM161800 04017G23KT P6SM BKN035
     FM170000 06013KT P6SM BKN035 OVC070=

USA.gov is the U.S. government's official web portal to all federal, state and local government web resources and services.